Time;durP1;ratioP1;P1;durP2;ratioP2;P2;SDS_P1;SDS_P2;PMS_P1;PMS_P2;Temp;Humidity;BMP_temperature;BMP_pressure;BME280_temperature;BME280_humidity;BME280_pressure;Samples;Min_cycle;Max_cycle;Signal;HPM_P1;HPM_P2
2022/08/27 00:01:15;;;;;;;16.13;12.10;;;21.80;98.70;;;22.14;66.20;98417.50;5014467;27;124367;-80
2022/08/27 00:03:44;;;;;;;18.77;11.77;;;21.80;98.80;;;22.14;65.89;98417.50;5016955;28;114373;-80
2022/08/27 00:06:16;;;;;;;18.97;12.47;;;21.80;99.00;;;22.14;66.30;98423.97;5013141;28;113986;-83
2022/08/27 00:08:44;;;;;;;17.47;12.73;;;22.80;99.40;;;22.14;65.88;98417.50;5012806;28;123821;-81
2022/08/27 00:11:12;;;;;;;18.80;13.10;;;21.80;99.00;;;22.16;65.89;98415.91;5011740;28;123676;-81
2022/08/27 00:13:39;;;;;;;20.67;13.40;;;21.80;99.10;;;22.21;66.35;98423.19;5010042;28;114233;-83
2022/08/27 00:16:08;;;;;;;14.70;12.30;;;21.80;99.20;;;22.23;65.96;98427.22;5018439;28;114133;-79
2022/08/27 00:18:39;;;;;;;14.40;11.80;;;21.80;99.20;;;22.25;66.12;98424.03;5024563;27;123003;-79
2022/08/27 00:21:06;;;;;;;20.00;12.37;;;21.90;99.10;;;22.27;65.83;98427.22;5012927;28;123977;-79
2022/08/27 00:23:34;;;;;;;16.47;12.53;;;21.90;99.10;;;22.27;65.94;98424.41;5011825;28;114062;-79
2022/08/27 00:26:01;;;;;;;17.40;11.77;;;21.90;99.10;;;22.28;65.85;98420.41;5009336;28;113575;-80
2022/08/27 00:28:29;;;;;;;21.43;12.97;;;21.90;99.00;;;22.30;65.43;98420.81;5010559;28;124917;-80
2022/08/27 00:30:56;;;;;;;15.03;12.00;;;21.90;99.00;;;22.34;65.68;98415.19;5010325;28;123192;-81
2022/08/27 00:33:23;;;;;;;15.83;12.20;;;21.90;99.00;;;22.37;65.24;98417.97;5016483;28;115036;-83
2022/08/27 00:35:51;;;;;;;14.80;11.80;;;21.90;99.10;;;22.41;65.38;98421.63;5017569;28;115932;-79
2022/08/27 00:38:20;;;;;;;16.83;11.87;;;22.00;99.10;;;22.44;65.80;98418.00;5016298;28;123905;-82
2022/08/27 00:40:47;;;;;;;14.83;12.07;;;22.00;99.20;;;22.49;65.54;98426.03;5017931;28;123225;-83
2022/08/27 00:43:25;;;;;;;13.20;11.77;;;22.00;99.20;;;22.52;65.36;98416.00;5013751;27;114234;-80
2022/08/27 00:45:57;;;;;;;12.90;11.57;;;22.10;99.20;;;22.56;65.16;98416.78;5026384;28;114080;-83
2022/08/27 00:48:30;;;;;;;17.60;13.33;;;22.00;99.10;;;22.58;65.24;98417.19;5024204;28;124598;-83
2022/08/27 00:50:57;;;;;;;19.07;12.03;;;22.10;99.10;;;22.57;65.18;98417.59;5019261;28;123078;-80
2022/08/27 00:53:28;;;;;;;17.60;11.63;;;22.10;99.00;;;22.60;64.87;98416.81;5019976;28;114121;-80
2022/08/27 00:56:10;;;;;;;15.10;11.87;;;22.10;99.00;;;22.62;64.90;98420.00;5022727;28;114153;-82
2022/08/27 00:58:42;;;;;;;14.27;10.70;;;22.10;99.00;;;22.64;65.04;98418.38;5022246;28;124546;-82
2022/08/27 01:01:15;;;;;;;15.83;11.27;;;22.10;98.90;;;22.68;64.91;98429.66;5012844;27;124054;-86
2022/08/27 01:03:47;;;;;;;13.77;10.17;;;22.20;99.00;;;22.71;64.95;98423.22;5020943;28;114274;-83
2022/08/27 01:06:16;;;;;;;15.13;11.30;;;22.20;99.00;;;22.72;65.21;98425.63;5014476;28;113994;-81
2022/08/27 01:08:52;;;;;;;16.50;11.13;;;22.20;99.10;;;22.74;65.14;98416.00;5014029;28;124013;-80
2022/08/27 01:11:20;;;;;;;17.10;10.87;;;22.20;99.40;;;22.77;65.37;98406.72;5019563;28;124064;-83
2022/08/27 01:13:46;;;;;;;15.30;10.77;;;22.30;99.30;;;22.79;65.42;98407.13;5014915;28;114365;-83
2022/08/27 01:16:21;;;;;;;14.50;11.30;;;22.30;99.30;;;22.79;65.49;98407.94;5015521;28;114094;-80
2022/08/27 01:18:49;;;;;;;13.10;10.93;;;22.30;99.40;;;22.80;65.23;98397.47;5019372;27;124495;-82
2022/08/27 01:21:27;;;;;;;16.37;12.20;;;21.50;99.00;;;22.81;65.10;98397.06;5015357;28;122767;-79
2022/08/27 01:24:40;;;;;;;16.03;11.40;;;22.30;99.40;;;22.76;65.09;98396.69;5011814;28;116335;-79
2022/08/27 01:27:12;;;;;;;15.73;11.20;;;22.30;99.20;;;22.77;65.06;98398.28;5013889;28;114817;-80
2022/08/27 01:29:41;;;;;;;18.93;11.70;;;22.30;99.20;;;22.79;65.04;98396.66;5017501;28;124746;-80
2022/08/27 01:32:22;;;;;;;15.33;11.03;;;22.30;99.20;;;22.77;65.15;98393.44;5016673;27;122937;-85
2022/08/27 01:34:50;;;;;;;14.93;10.30;;;22.30;99.20;;;22.79;65.21;98401.50;5010232;28;114365;-82
2022/08/27 01:37:18;;;;;;;14.20;11.70;;;22.30;99.30;;;22.81;65.43;98401.88;5014162;28;114059;-78
2022/08/27 01:39:44;;;;;;;13.43;11.17;;;22.30;99.30;;;22.82;64.99;98398.66;5027070;28;123913;-85
2022/08/27 01:42:20;;;;;;;13.60;10.53;;;22.30;99.40;;;22.84;65.70;98409.53;5019564;28;123872;-84
2022/08/27 01:44:58;;;;;;;12.87;10.97;;;22.40;99.50;;;22.84;65.83;98404.72;5015659;28;114408;-86
2022/08/27 01:47:27;;;;;;;13.27;11.30;;;22.40;99.70;;;22.85;65.72;98406.31;5021798;28;113864;-86
2022/08/27 01:49:55;;;;;;;15.80;12.13;;;22.40;99.70;;;22.87;65.66;98403.09;5013777;28;124431;-85
2022/08/27 01:52:25;;;;;;;16.70;11.50;;;22.40;99.80;;;22.86;65.98;98396.66;5012806;28;123787;-86
2022/08/27 01:54:52;;;;;;;16.87;11.03;;;22.40;99.90;;;22.87;66.10;98395.44;5036241;27;114454;-86
2022/08/27 01:57:20;;;;;;;13.87;11.43;;;22.40;99.90;;;22.87;65.89;98403.91;5010316;28;113999;-86
2022/08/27 01:59:47;;;;;;;19.03;13.07;;;22.40;99.90;;;22.88;65.99;98399.06;5009711;28;124365;-86
2022/08/27 02:02:16;;;;;;;14.23;12.30;;;22.40;99.90;;;22.88;65.73;98399.06;5027592;27;123926;-84
2022/08/27 02:04:43;;;;;;;15.07;12.27;;;22.40;99.90;;;22.87;65.54;98401.06;5012772;28;114362;-86
2022/08/27 02:07:11;;;;;;;14.87;12.20;;;22.40;99.90;;;22.86;65.80;98396.66;5023067;28;113206;-86
2022/08/27 02:09:38;;;;;;;14.00;11.60;;;22.40;99.90;;;22.88;65.62;98399.06;5022266;28;123591;-87
2022/08/27 02:12:05;;;;;;;15.53;11.77;;;22.40;99.80;;;22.88;65.89;98397.03;5030638;28;123944;-84
2022/08/27 02:14:32;;;;;;;15.37;12.00;;;22.40;99.90;;;22.89;65.86;98392.19;5027745;27;114776;-86
2022/08/27 02:16:59;;;;;;;15.10;12.60;;;22.40;99.90;;;22.89;65.92;98397.84;5028762;28;114814;-87
2022/08/27 02:19:26;;;;;;;16.50;12.40;;;22.40;99.90;;;22.89;65.79;98395.84;5019985;28;123249;-85
2022/08/27 02:21:53;;;;;;;15.50;11.77;;;22.40;99.80;;;22.90;65.59;98394.63;5014138;28;123813;-85
2022/08/27 02:24:19;;;;;;;17.50;14.67;;;22.40;99.80;;;22.88;65.48;98401.88;5010042;28;114199;-85
2022/08/27 02:26:46;;;;;;;20.43;13.77;;;22.40;99.70;;;22.85;65.41;98394.25;5010650;28;113635;-86
2022/08/27 02:29:12;;;;;;;23.33;14.90;;;22.40;99.90;;;22.78;65.48;98400.66;5018416;28;124099;-86
2022/08/27 02:31:40;;;;;;;18.30;15.30;;;22.30;99.40;;;22.69;65.26;98387.00;5033771;28;124112;-85
2022/08/27 02:34:08;;;;;;;21.03;15.50;;;22.30;99.30;;;22.62;65.58;98391.84;5016474;28;114531;-86
2022/08/27 02:36:36;;;;;;;16.43;13.70;;;22.20;99.30;;;22.56;65.67;98399.88;5013854;28;114273;-87
2022/08/27 02:39:06;;;;;;;21.93;16.17;;;23.30;99.80;;;22.50;65.75;98391.03;5015536;28;124404;-85
2022/08/27 02:41:34;;;;;;;16.60;14.07;;;22.20;99.40;;;22.48;65.89;98395.47;5021566;28;123595;-86
2022/08/27 02:44:04;;;;;;;22.53;14.97;;;22.10;99.40;;;22.45;65.66;98399.09;5021152;28;114724;-83
2022/08/27 02:46:30;;;;;;;22.10;15.87;;;22.20;99.80;;;22.43;66.15;98401.50;5026265;28;114012;-84
2022/08/27 02:48:57;;;;;;;20.47;15.70;;;22.10;99.50;;;22.43;66.05;98402.31;5012564;28;123092;-87
2022/08/27 02:51:24;;;;;;;17.53;14.50;;;22.10;99.60;;;22.43;66.06;98405.13;5014427;28;124289;-88
2022/08/27 02:53:50;;;;;;;20.63;14.30;;;22.10;99.60;;;22.45;66.20;98404.72;5030863;27;113967;-85
2022/08/27 02:56:17;;;;;;;18.20;14.33;;;22.10;99.70;;;22.45;65.92;98410.34;5044547;27;113530;-85
2022/08/27 02:58:44;;;;;;;21.30;14.53;;;22.00;99.70;;;22.46;66.03;98409.97;5018688;28;124362;-87
2022/08/27 03:01:11;;;;;;;18.57;14.23;;;22.00;99.60;;;22.46;65.84;98407.16;5011134;27;123740;-84
2022/08/27 03:03:37;;;;;;;18.17;14.30;;;22.00;99.90;;;22.49;65.79;98408.34;5023125;28;116438;-86
2022/08/27 03:06:04;;;;;;;16.77;12.70;;;22.00;99.70;;;22.50;65.77;98405.13;5010452;28;114632;-85
2022/08/27 03:08:30;;;;;;;18.63;15.10;;;22.10;99.70;;;22.48;65.54;98401.09;5014157;28;124362;-85
2022/08/27 03:10:57;;;;;;;19.50;14.77;;;22.10;99.70;;;22.45;65.61;98404.72;5019160;27;123890;-86
2022/08/27 03:13:24;;;;;;;21.13;15.97;;;22.10;99.60;;;22.44;65.45;98403.91;5010930;28;114557;-84
2022/08/27 03:15:52;;;;;;;16.77;13.37;;;22.00;99.50;;;22.40;65.73;98408.72;5009648;28;114058;-85
2022/08/27 03:18:20;;;;;;;21.27;14.80;;;22.00;99.50;;;22.39;65.45;98412.75;5016039;27;123908;-86
2022/08/27 03:20:51;;;;;;;18.23;14.20;;;22.00;99.50;;;22.32;65.86;98409.94;5017530;27;124032;-85
2022/08/27 03:23:23;;;;;;;18.17;14.87;;;21.90;99.40;;;22.29;65.58;98407.94;5009087;28;114414;-86
2022/08/27 03:25:57;;;;;;;20.83;15.03;;;21.90;99.40;;;22.24;65.47;98402.69;5009095;28;114062;-85
2022/08/27 03:28:32;;;;;;;19.90;13.83;;;21.90;99.40;;;22.19;65.75;98403.09;5011880;28;124537;-85
2022/08/27 03:31:02;;;;;;;23.07;14.90;;;21.90;99.40;;;22.17;66.05;98408.31;5020146;28;123733;-86
2022/08/27 03:33:32;;;;;;;16.63;12.87;;;21.80;99.40;;;22.19;65.62;98411.53;5014894;28;114060;-85
2022/08/27 03:35:59;;;;;;;15.80;11.83;;;21.80;99.30;;;22.18;65.70;98401.47;5013462;28;113850;-86
2022/08/27 03:38:26;;;;;;;16.70;13.07;;;21.80;99.30;;;22.18;65.87;98391.03;5015222;28;124079;-84
2022/08/27 03:40:53;;;;;;;15.57;13.30;;;21.80;99.30;;;22.20;65.44;98402.69;5012396;28;122857;-85
2022/08/27 03:43:21;;;;;;;15.27;11.80;;;21.80;99.30;;;22.19;65.30;98403.91;5016868;28;113515;-85
2022/08/27 03:45:51;;;;;;;15.20;12.30;;;21.80;99.30;;;22.21;65.36;98400.69;5010743;28;113757;-85
2022/08/27 03:48:18;;;;;;;16.63;12.57;;;21.80;99.30;;;22.22;65.12;98402.31;5028668;27;124620;-85
2022/08/27 03:50:48;;;;;;;15.70;11.93;;;21.80;99.20;;;22.20;65.16;98393.47;5019476;27;123776;-86
2022/08/27 03:53:19;;;;;;;11.50;9.73;;;21.80;99.00;;;22.21;64.77;98397.88;5012018;28;115226;-86
2022/08/27 03:55:46;;;;;;;16.83;11.23;;;21.80;99.00;;;22.22;64.90;98396.69;5022063;27;114923;-86
2022/08/27 03:58:15;;;;;;;13.90;11.80;;;21.90;98.90;;;22.21;64.66;98400.69;5011149;28;124102;-86
2022/08/27 04:00:42;;;;;;;14.33;10.50;;;21.80;98.80;;;22.19;64.64;98397.47;4999449;28;124756;-86
2022/08/27 04:03:12;;;;;;;14.03;10.77;;;21.80;98.80;;;22.18;64.81;98395.81;5023225;27;115030;-85
2022/08/27 04:05:40;;;;;;;15.07;11.27;;;21.80;98.80;;;22.18;64.69;98384.56;5029332;28;113047;-87
2022/08/27 04:08:11;;;;;;;17.87;11.57;;;21.80;98.80;;;22.18;64.75;98391.03;5021938;28;124306;-87
2022/08/27 04:10:39;;;;;;;15.57;13.20;;;21.80;98.80;;;22.19;64.64;98389.00;5019290;28;124471;-85
2022/08/27 04:13:06;;;;;;;14.77;12.90;;;21.80;98.80;;;22.18;64.41;98384.56;5010060;28;114275;-86
2022/08/27 04:15:32;;;;;;;19.00;13.77;;;21.80;98.70;;;22.16;64.32;98386.97;5018334;28;113467;-86
2022/08/27 04:18:01;;;;;;;18.63;13.80;;;21.70;98.60;;;22.13;64.46;98391.38;5024888;28;123318;-87
2022/08/27 04:20:27;;;;;;;17.30;13.70;;;21.70;98.60;;;22.10;64.69;98389.38;5022153;27;124365;-86
2022/08/27 04:22:54;;;;;;;23.07;17.17;;;21.70;98.60;;;22.05;64.83;98392.59;5007291;28;113739;-86
2022/08/27 04:25:20;;;;;;;25.63;17.83;;;21.70;98.70;;;22.00;65.10;98385.38;5007719;28;114127;-86
2022/08/27 04:27:47;;;;;;;22.43;17.10;;;21.70;98.80;;;21.92;65.44;98394.97;5012164;28;124035;-87
2022/08/27 04:30:14;;;;;;;26.83;19.37;;;21.60;98.80;;;21.88;65.72;98393.38;5009948;28;123678;-86
2022/08/27 04:32:41;;;;;;;25.60;20.27;;;21.60;99.00;;;21.83;65.75;98403.00;5010526;28;114156;-87
2022/08/27 04:35:08;;;;;;;27.63;19.80;;;21.50;99.10;;;21.78;66.27;98407.00;5010295;28;114217;-86
2022/08/27 04:37:34;;;;;;;29.53;21.70;;;21.50;99.20;;;21.75;66.13;98404.19;5029696;27;124693;-86
2022/08/27 04:40:01;;;;;;;31.50;22.20;;;21.40;99.40;;;21.71;66.53;98400.53;5012101;28;124162;-87
2022/08/27 04:42:27;;;;;;;29.87;21.40;;;21.40;99.60;;;21.68;66.75;98404.16;5018674;27;114961;-86
2022/08/27 04:44:54;;;;;;;29.43;21.47;;;21.40;99.70;;;21.66;66.58;98403.75;5015972;28;114957;-87
2022/08/27 04:47:20;;;;;;;31.50;21.93;;;21.30;99.80;;;21.64;67.19;98415.38;5016511;28;124800;-85
2022/08/27 04:49:47;;;;;;;28.67;22.20;;;21.30;99.90;;;21.62;67.04;98403.72;5019107;27;124342;-86
2022/08/27 04:52:14;;;;;;;36.50;24.30;;;21.30;99.90;;;21.58;67.13;98403.72;5028016;27;113385;-83
2022/08/27 04:54:41;;;;;;;34.83;23.77;;;21.30;99.90;;;21.57;67.30;98399.31;5021647;27;114100;-84
2022/08/27 04:57:08;;;;;;;30.47;21.53;;;21.30;99.90;;;21.60;67.41;98404.13;5017732;28;123749;-79
2022/08/27 04:59:37;;;;;;;31.70;22.83;;;21.20;99.90;;;21.60;67.38;98406.94;5015998;28;123134;-79
2022/08/27 05:02:08;;;;;;;32.17;21.90;;;21.20;99.90;;;21.57;67.66;98402.13;5017291;28;114529;-80
2022/08/27 05:04:38;;;;;;;28.03;19.73;;;21.20;99.90;;;21.56;67.84;98405.31;5017681;28;114327;-79
2022/08/27 05:07:07;;;;;;;31.43;22.33;;;21.20;99.90;;;21.55;67.55;98409.34;5018401;28;123619;-81
2022/08/27 05:09:34;;;;;;;34.03;23.00;;;21.20;99.90;;;21.55;67.73;98404.53;5016701;28;124264;-81
2022/08/27 05:12:01;;;;;;;30.40;21.37;;;21.20;99.90;;;21.56;67.81;98411.75;5019053;28;113386;-79
2022/08/27 05:14:29;;;;;;;27.10;21.83;;;21.20;99.90;;;21.55;67.96;98407.34;5023669;28;112951;-80
2022/08/27 05:16:57;;;;;;;29.30;20.60;;;21.20;99.90;;;21.53;68.03;98406.91;5018952;28;124937;-85
2022/08/27 05:19:24;;;;;;;33.00;22.33;;;21.10;99.90;;;21.52;68.06;98404.47;5020215;27;122829;-84
2022/08/27 05:21:52;;;;;;;28.03;20.10;;;21.20;99.90;;;21.54;68.21;98399.28;5017417;28;114237;-84
2022/08/27 05:24:20;;;;;;;30.10;20.30;;;21.20;99.90;;;21.55;68.20;98398.91;5018217;28;114677;-84
2022/08/27 05:26:47;;;;;;;30.03;22.33;;;21.20;99.90;;;21.55;68.08;98393.28;5017603;28;123968;-84
2022/08/27 05:29:14;;;;;;;30.53;21.37;;;21.20;99.90;;;21.54;67.92;98399.28;5015266;28;124076;-83
2022/08/27 05:31:41;;;;;;;31.47;23.17;;;21.20;99.90;;;21.52;68.02;98396.06;5017779;28;116247;-87
2022/08/27 05:34:11;;;;;;;27.93;20.50;;;21.10;99.90;;;21.53;68.38;98401.28;5016323;27;114877;-86
2022/08/27 05:36:39;;;;;;;27.67;20.93;;;21.20;99.90;;;21.58;68.26;98403.72;5020941;28;124637;-86
2022/08/27 05:39:06;;;;;;;28.13;20.50;;;21.20;99.90;;;21.64;68.15;98403.34;5021679;28;124053;-85
2022/08/27 05:41:33;;;;;;;27.03;17.47;;;21.20;99.90;;;21.68;67.95;98401.34;5020599;28;113543;-85
2022/08/27 05:44:08;;;;;;;25.17;20.00;;;21.20;99.90;;;21.71;68.10;98406.16;5022035;28;113920;-85
2022/08/27 05:46:38;;;;;;;27.07;19.90;;;21.20;99.90;;;21.71;67.94;98404.19;5021089;28;123936;-84
2022/08/27 05:49:05;;;;;;;30.27;20.80;;;21.30;99.90;;;21.71;68.00;98408.97;5020385;28;123958;-85
2022/08/27 05:51:35;;;;;;;24.63;17.50;;;21.30;99.90;;;21.73;67.64;98406.56;5019334;28;113581;-86
2022/08/27 05:54:07;;;;;;;35.50;21.70;;;21.30;99.90;;;21.75;67.66;98404.19;5020451;27;114682;-83
2022/08/27 05:56:37;;;;;;;33.03;22.33;;;21.30;99.90;;;21.77;67.84;98405.38;5010146;28;123246;-86
2022/08/27 06:01:53;;;;;;;25.97;16.93;;;21.40;99.90;;;21.80;67.72;98407.41;5017271;28;113235;-85
2022/08/27 06:04:22;;;;;;;26.90;20.73;;;21.30;99.90;;;21.81;67.37;98411.00;5020826;28;114159;-85
2022/08/27 06:06:50;;;;;;;26.17;19.30;;;21.40;99.90;;;21.78;67.64;98406.19;5021514;28;123299;-85
2022/08/27 06:09:22;;;;;;;24.80;18.60;;;21.40;99.90;;;21.78;67.59;98409.81;5021767;28;123094;-83
2022/08/27 06:11:49;;;;;;;28.47;20.03;;;21.40;99.90;;;21.75;67.85;98412.63;5019423;28;114307;-84
2022/08/27 06:14:16;;;;;;;38.83;22.57;;;21.40;99.90;;;21.74;68.18;98416.63;5024808;28;114040;-83
2022/08/27 06:16:43;;;;;;;26.70;19.90;;;21.30;99.90;;;21.74;68.21;98416.63;5020337;28;123919;-82
2022/08/27 06:19:13;;;;;;;27.47;18.20;;;21.30;99.90;;;21.74;68.17;98423.06;5028523;27;123745;-82
2022/08/27 06:21:41;;;;;;;28.83;20.47;;;21.30;99.90;;;21.77;68.17;98418.66;5031682;28;115269;-83
2022/08/27 06:24:28;;;;;;;28.63;21.60;;;21.40;99.90;;;21.78;68.06;98417.44;5032512;28;115562;-78
2022/08/27 06:26:56;;;;;;;25.30;20.73;;;21.40;99.90;;;21.77;67.89;98413.03;4951474;28;123874;-82
2022/08/27 06:29:23;;;;;;;30.97;20.70;;;21.40;99.90;;;21.78;67.82;98417.44;4935112;28;122693;-85
2022/08/27 06:31:51;;;;;;;27.07;19.40;;;21.40;99.90;;;21.79;68.29;98421.88;4935305;28;114230;-85
2022/08/27 06:34:18;;;;;;;26.67;19.23;;;21.40;99.90;;;21.79;68.15;98417.06;4949882;28;114234;-82
2022/08/27 06:36:44;;;;;;;24.27;18.27;;;21.40;99.90;;;21.83;68.21;98414.25;4950217;28;124228;-81
2022/08/27 06:39:14;;;;;;;28.53;20.20;;;21.40;99.90;;;21.83;68.33;98417.06;4950111;28;124457;-85
2022/08/27 06:41:42;;;;;;;28.07;20.37;;;21.40;99.90;;;21.85;68.20;98420.28;4931490;28;113798;-84
2022/08/27 06:44:09;;;;;;;26.57;19.30;;;21.40;99.90;;;21.87;68.10;98423.50;4949213;28;113284;-86
2022/08/27 06:46:37;;;;;;;27.90;18.83;;;21.50;99.90;;;21.89;68.18;98423.09;4926857;28;124000;-86
2022/08/27 06:49:05;;;;;;;25.63;20.10;;;21.40;99.90;;;21.89;68.22;98423.09;4939887;28;123613;-81
2022/08/27 06:51:36;;;;;;;27.10;19.90;;;21.50;99.90;;;21.91;67.98;98426.31;4948516;28;114278;-85
2022/08/27 06:54:11;;;;;;;30.27;20.17;;;21.50;99.90;;;21.92;68.40;98419.47;4958891;28;114285;-80
2022/08/27 06:56:39;;;;;;;24.97;18.57;;;21.50;99.90;;;21.92;68.19;98425.09;4938031;28;124011;-84
2022/08/27 06:59:10;;;;;;;29.13;18.70;;;21.50;99.90;;;21.94;68.00;98431.94;4945467;28;124198;-83
2022/08/27 07:01:40;;;;;;;29.03;20.70;;;21.50;99.90;;;21.94;68.32;98428.34;4932749;28;114229;-86
2022/08/27 07:04:10;;;;;;;25.93;19.67;;;21.50;99.90;;;21.95;67.96;98415.88;4979001;28;114912;-82
2022/08/27 07:06:38;;;;;;;28.70;20.53;;;21.50;99.90;;;21.98;68.05;98424.34;5012951;28;124148;-81
2022/08/27 07:09:05;;;;;;;30.97;19.47;;;21.50;99.90;;;22.00;68.20;98429.56;5019562;28;124509;-86
2022/08/27 07:11:32;;;;;;;26.10;20.53;;;21.60;99.90;;;22.03;67.97;98423.94;5012675;28;114538;-86
2022/08/27 07:14:00;;;;;;;30.00;22.13;;;21.60;99.90;;;22.05;68.12;98426.34;5008737;28;115235;-85
2022/08/27 07:16:28;;;;;;;25.17;18.07;;;21.60;99.90;;;22.06;67.84;98423.16;5021410;28;123946;-82
2022/08/27 07:18:57;;;;;;;27.97;20.27;;;21.60;99.90;;;22.07;67.60;98418.31;5015745;28;124044;-85
2022/08/27 07:21:25;;;;;;;27.20;20.03;;;21.60;99.90;;;22.08;67.85;98428.38;5011787;28;113525;-87
2022/08/27 07:23:54;;;;;;;29.20;16.93;;;20.20;99.90;;;22.11;67.57;98424.78;5014137;28;114467;-85
2022/08/27 07:26:22;;;;;;;22.73;17.90;;;21.70;99.90;;;22.14;67.83;98423.97;5008031;28;125026;-87
2022/08/27 07:28:49;;;;;;;26.80;20.27;;;21.70;99.90;;;22.16;67.64;98426.38;5020656;28;122955;-83
2022/08/27 07:31:19;;;;;;;29.60;18.10;;;21.70;99.90;;;22.15;67.55;98425.56;5018488;28;114226;-81
2022/08/27 07:33:46;;;;;;;26.43;17.43;;;21.70;99.90;;;22.19;67.32;98432.06;5022344;28;113647;-86
2022/08/27 07:36:13;;;;;;;28.33;18.47;;;21.70;99.90;;;22.21;67.41;98437.25;5014795;28;124145;-85
2022/08/27 07:38:39;;;;;;;24.70;17.97;;;21.70;99.90;;;22.24;67.57;98433.66;5015664;28;123635;-86
2022/08/27 07:41:09;;;;;;;23.90;19.60;;;21.80;99.90;;;22.24;67.52;98439.28;5024138;27;114934;-83
2022/08/27 07:46:22;;;;;;;25.47;19.47;;;21.80;99.90;;;22.26;67.50;98448.13;5012171;28;125419;-88
2022/08/27 07:48:50;;;;;;;28.60;19.80;;;21.80;99.90;;;22.27;67.52;98449.72;5030801;27;124351;-86
2022/08/27 07:51:20;;;;;;;30.37;20.03;;;21.90;99.90;;;22.26;67.77;98451.75;5013713;27;113619;-86
2022/08/27 07:53:47;;;;;;;23.07;17.30;;;21.90;99.90;;;22.24;67.58;98450.53;5025577;27;114085;-86
2022/08/27 07:56:14;;;;;;;23.97;18.50;;;21.80;99.90;;;22.26;67.80;98450.94;5012080;27;123827;-84
2022/08/27 07:58:41;;;;;;;25.43;19.87;;;21.90;99.90;;;22.30;67.99;98457.41;5012607;28;123640;-86
2022/08/27 08:01:09;;;;;;;27.20;18.67;;;21.90;99.90;;;22.32;68.33;98457.78;5020111;28;114738;-86
2022/08/27 08:03:36;;;;;;;30.27;20.70;;;21.90;99.90;;;22.39;68.12;98457.81;5009316;28;115015;-86
2022/08/27 08:06:06;;;;;;;29.13;19.03;;;21.90;99.90;;;22.43;68.28;98457.81;5017909;28;124040;-86
2022/08/27 08:08:35;;;;;;;19.73;17.60;;;21.90;99.90;;;22.45;68.03;98461.03;5011512;27;124236;-78
2022/08/27 08:11:02;;;;;;;22.37;18.87;;;22.00;99.90;;;22.46;68.38;98463.47;5015699;28;114351;-85
2022/08/27 08:13:30;;;;;;;24.50;18.70;;;22.00;99.90;;;22.46;68.47;98463.47;5008693;28;113188;-82
2022/08/27 08:15:58;;;;;;;26.37;19.10;;;22.00;99.90;;;22.44;68.37;98465.84;5011469;27;122683;-83
2022/08/27 08:18:25;;;;;;;25.53;17.20;;;22.00;99.90;;;22.45;68.49;98470.28;5013588;27;124119;-83
2022/08/27 08:20:52;;;;;;;24.10;18.37;;;22.00;99.90;;;22.47;68.55;98459.41;5018918;27;114427;-85
2022/08/27 08:23:19;;;;;;;28.40;19.23;;;22.00;99.90;;;22.46;68.43;98466.28;5013927;28;113441;-85
2022/08/27 08:25:46;;;;;;;23.43;17.53;;;22.00;99.90;;;22.46;68.25;98463.47;5008299;28;124067;-87
2022/08/27 08:28:12;;;;;;;22.93;17.60;;;22.00;99.90;;;22.47;68.41;98473.50;5019155;28;123770;-85
2022/08/27 08:30:42;;;;;;;27.47;19.20;;;22.10;99.90;;;22.49;68.44;98471.09;5007975;28;114378;-87
2022/08/27 08:33:09;;;;;;;22.87;17.30;;;22.10;99.90;;;22.52;68.18;98477.13;5016549;28;113812;-86
2022/08/27 08:35:40;;;;;;;23.80;17.17;;;22.10;99.90;;;22.54;68.05;98475.53;5017485;28;124019;-86
2022/08/27 08:38:06;;;;;;;24.33;17.70;;;22.10;99.90;;;22.56;67.97;98475.13;5022918;27;123036;-78
2022/08/27 08:40:41;;;;;;;22.77;16.97;;;22.10;99.90;;;22.58;68.12;98475.53;5014833;28;114029;-85
2022/08/27 08:43:26;;;;;;;26.03;16.90;;;22.10;99.90;;;22.60;68.05;98478.75;5016862;27;115341;-84
2022/08/27 08:45:58;;;;;;;23.23;17.97;;;22.20;99.90;;;22.65;68.02;98481.19;5009985;28;124254;-86
2022/08/27 08:48:28;;;;;;;26.43;18.77;;;22.20;99.90;;;22.68;67.86;98480.38;5015716;27;123425;-84
2022/08/27 08:51:28;;;;;;;27.13;19.23;;;22.20;99.90;;;22.70;67.71;98477.94;5022856;27;115456;-88
2022/08/27 08:54:09;;;;;;;25.03;16.53;;;22.20;99.90;;;22.76;67.59;98481.97;5025814;27;117009;-80
2022/08/27 08:56:55;;;;;;;21.87;16.73;;;22.20;99.90;;;22.83;67.63;98498.84;5030371;27;123467;-84
2022/08/27 08:59:50;;;;;;;27.10;19.20;;;22.30;99.90;;;22.85;67.54;98490.81;5009883;28;124120;-84
2022/08/27 09:02:17;;;;;;;22.73;15.53;;;22.30;99.90;;;22.91;67.70;98497.66;5023979;28;114347;-83
2022/08/27 09:04:43;;;;;;;23.70;15.47;;;22.40;99.90;;;23.02;67.13;98499.69;5014528;28;113216;-78
2022/08/27 09:07:37;;;;;;;22.33;17.03;;;22.40;99.90;;;23.09;67.29;98497.69;5022059;28;123867;-83
2022/08/27 09:10:33;;;;;;;26.33;15.73;;;22.50;99.90;;;23.15;66.83;98492.44;5023151;28;124069;-84
2022/08/27 09:13:04;;;;;;;26.83;18.30;;;22.60;99.90;;;23.23;66.57;98488.41;5012562;28;114338;-86
2022/08/27 09:15:34;;;;;;;18.63;14.53;;;22.60;99.90;;;23.29;66.70;98489.63;5019595;28;113187;-85
2022/08/27 09:18:13;;;;;;;22.43;17.10;;;22.70;99.90;;;23.36;66.47;98494.41;4996475;27;123856;-80
2022/08/27 09:20:45;;;;;;;18.60;14.00;;;22.80;99.90;;;23.41;66.32;98496.03;5019467;28;123761;-83
2022/08/27 09:23:53;;;;;;;19.67;15.03;;;22.80;99.90;;;23.40;66.32;98497.22;5011651;28;115124;-88
2022/08/27 09:26:26;;;;;;;18.50;14.33;;;22.90;99.90;;;23.34;66.43;98491.19;5022594;28;114409;-88
2022/08/27 09:31:46;;;;;;;12.43;11.03;;;22.70;99.90;;;23.18;66.85;98496.47;5013347;28;124397;-89
2022/08/27 09:34:14;;;;;;;15.53;10.40;;;22.60;99.90;;;23.09;66.99;98494.88;5017204;28;113550;-88
2022/08/27 09:36:59;;;;;;;11.30;9.30;;;22.60;99.90;;;23.00;67.66;98496.47;5012872;28;114092;-83
2022/08/27 09:40:06;;;;;;;11.20;8.57;;;22.50;99.90;;;22.93;67.65;98500.88;5016820;28;124067;-89
2022/08/27 09:43:15;;;;;;;10.50;8.87;;;22.60;99.90;;;22.91;67.59;98500.47;5020366;28;124053;-89
2022/08/27 09:45:55;;;;;;;10.57;8.67;;;22.50;99.90;;;22.96;67.92;98496.47;5003580;28;114839;-87
2022/08/27 09:48:31;;;;;;;10.97;8.93;;;22.50;99.90;;;23.02;67.99;98505.34;5017934;27;114916;-85
2022/08/27 09:51:15;;;;;;;11.17;9.40;;;22.50;99.90;;;23.03;68.00;98499.31;5024982;27;124106;-87
2022/08/27 09:54:02;;;;;;;8.97;8.07;;;22.50;99.90;;;23.04;68.12;98500.09;5023906;27;122950;-85
2022/08/27 09:56:40;;;;;;;9.73;8.40;;;22.50;99.90;;;23.06;68.02;98492.06;5032346;27;113454;-87
2022/08/27 09:59:21;;;;;;;9.47;8.47;;;22.60;99.90;;;23.06;67.96;98489.25;5026784;28;113998;-87
2022/08/27 10:01:54;;;;;;;8.60;6.13;;;22.50;99.90;;;23.07;68.09;98482.38;5016270;28;123244;-85
2022/08/27 10:04:49;;;;;;;9.00;7.30;;;22.60;99.90;;;23.08;67.84;98482.00;5014912;28;122872;-85
2022/08/27 10:07:28;;;;;;;9.07;8.17;;;22.70;99.90;;;23.11;67.76;98489.63;5015275;28;114291;-87
2022/08/27 10:10:56;;;;;;;8.97;7.20;;;22.60;99.90;;;23.12;67.47;98491.22;5010055;28;113273;-86
2022/08/27 10:13:27;;;;;;;8.13;7.33;;;22.60;99.90;;;23.17;67.57;98483.59;4976528;28;124091;-86
2022/08/27 10:16:32;;;;;;;7.67;6.83;;;22.70;99.90;;;23.20;67.21;98477.94;5011478;28;123734;-85
2022/08/27 10:19:39;;;;;;;8.80;7.70;;;22.80;99.90;;;23.19;67.38;98479.16;5021784;27;114588;-86
2022/08/27 10:22:11;;;;;;;10.00;8.57;;;22.80;99.90;;;23.24;67.21;98480.75;5020035;28;114069;-87
2022/08/27 10:24:57;;;;;;;9.40;8.20;;;22.80;99.90;;;23.26;67.33;98481.16;5019733;28;124346;-88